Terminal Aerodrome Forecast
Issued by NWS

Current Version | Previous Version | Text Only | Print | Product List | Glossary On
Versions: 1 2 3 4 5 6 7 8 9 10 11 12 13 14 15 16
000
FTUS46 KPDT 061122
TAFDLS
TAF
KDLS 061122Z 0612/0712 24009KT P6SM SCT070 BKN100
     FM061600 32012G18KT P6SM VCSH BKN060 BKN100
     FM061900 31012G19KT P6SM -SHRA BKN060 BKN100
      TEMPO 0620/0624 -TSRA BKN060CB BKN100CB
     FM070000 30015G25KT P6SM -SHRA BKN060 BKN100
     FM070500 30011KT P6SM FEW060 BKN100=

USA.gov is the U.S. government's official web portal to all federal, state and local government web resources and services.